Maple Lake, MN

7:55 PM CST on February 25, 2018 (GMT -0600)
Maple Lake Municipal

Weather History for KMGG - October, 2013

Change the Weather History Date:

Saturday, October 26, 2013

  Actual Average (KSTC) Record (KSTC)
Temperature  
Mean Temperature 40 °F -  
Max Temperature 48 °F 55 °F 80 °F (1989)
Min Temperature 32 °F 32 °F 13 °F (1936)
Degree Days  
Heating Degree Days 24    
Moisture  
Dew Point 31 °F    
Average Humidity 67    
Maximum Humidity 90    
Minimum Humidity 55    
Precipitation  
Precipitation 0.00 in - - ()
Sea Level Pressure  
Sea Level Pressure 30.03 in    
Wind  
Wind Speed 10 mph (NW)    
Max Wind Speed 16 mph    
Max Gust Speed 24 mph    
Visibility 10 miles    
Events      
Averages and records for this station are not official NWS values.
T = Trace of Precipitation, MM = Missing Value Source: NWS Daily Summary

Daily Weather History Graph

Daily Weather History Graph

Search for Another Location

Airport or City:

Trip Planner

Search our weather history database for the weather conditions in past years. The results will help you decide how hot, cold, wet, or windy it might be!

Date:

Astronomy

Oct. 26, 2013 Rise Set
Actual Time 7:47 AM CDT 6:12 PM CDT
Civil Twilight 7:16 AM CDT 6:42 PM CDT
Nautical Twilight 6:42 AM CDT 7:16 PM CDT
Astronomical Twilight 6:07 AM CDT 7:50 PM CDT
Moon No Moon Rise 2:05 PM CDT
Length of Visible Light 11h 25m
Length of Day
10h 25m
Waning Gibbous, 53% of the Moon is Illuminated
Oct 26
Waning Gibbous
Oct 26
Last Quarter
Nov 3
New
Nov 9
First Quarter
Nov 17
Full

Hourly Weather History & Observations

Time (CDT) Temp. Windchill Dew Point Humidity Pressure Visibility Wind Dir Wind Speed Gust Speed Precip Events Conditions
12:16 AM 49.1 °F - 40.1 °F 71% 29.82 in 10.0 mi WNW 9.2 mph 16.1 mph N/A   Clear
12:36 AM 48.7 °F - 37.4 °F 65% 29.82 in 10.0 mi WNW 10.4 mph - N/A   Clear
12:57 AM 47.5 °F - 36.5 °F 66% 29.84 in 10.0 mi WNW 16.1 mph 20.7 mph N/A   Clear
1:16 AM 47.3 °F - 34.2 °F 60% 29.84 in 10.0 mi NW 10.4 mph 19.6 mph N/A   Clear
1:36 AM 46.4 °F 41.1 °F 33.8 °F 62% 29.86 in 10.0 mi WNW 11.5 mph 20.7 mph N/A   Clear
1:56 AM 45.1 °F 40.3 °F 34.0 °F 65% 29.86 in 10.0 mi WNW 9.2 mph 19.6 mph N/A   Clear
2:16 AM 44.6 °F 38.4 °F 33.8 °F 66% 29.87 in 10.0 mi WNW 12.7 mph 16.1 mph N/A   Clear
2:37 AM 43.9 °F 37.9 °F 31.1 °F 61% 29.87 in 10.0 mi NW 11.5 mph 18.4 mph N/A   Clear
2:56 AM 43.0 °F 37.7 °F 29.8 °F 60% 29.88 in 10.0 mi WNW 9.2 mph - N/A   Clear
3:16 AM 42.3 °F 36.8 °F 29.3 °F 60% 29.88 in 10.0 mi WNW 9.2 mph - N/A   Clear
3:36 AM 41.9 °F 35.9 °F 29.7 °F 62% 29.89 in 10.0 mi NW 10.4 mph 18.4 mph N/A   Clear
3:56 AM 40.8 °F 34.5 °F 29.7 °F 64% 29.90 in 10.0 mi NW 10.4 mph 18.4 mph N/A   Clear
4:16 AM 39.9 °F 32.1 °F 29.7 °F 67% 29.91 in 10.0 mi NW 13.8 mph 21.9 mph N/A   Clear
4:36 AM 39.2 °F 31.6 °F 30.0 °F 70% 29.93 in 10.0 mi NW 12.7 mph - N/A   Clear
4:56 AM 38.5 °F 29.9 °F 30.2 °F 72% 29.94 in 10.0 mi NW 15.0 mph 20.7 mph N/A   Clear
5:16 AM 37.8 °F 29.0 °F 30.4 °F 75% 29.95 in 10.0 mi NW 15.0 mph 18.4 mph N/A   Clear
5:36 AM 37.4 °F 29.3 °F 30.4 °F 76% 29.95 in 10.0 mi NW 12.7 mph 21.9 mph N/A   Clear
5:56 AM 37.2 °F 30.0 °F 30.4 °F 76% 29.97 in 10.0 mi NW 10.4 mph 19.6 mph N/A   Clear
6:16 AM 36.9 °F 29.1 °F 30.6 °F 78% 29.98 in 10.0 mi NW 11.5 mph 19.6 mph N/A   Clear
6:36 AM 37.0 °F 29.3 °F 30.2 °F 76% 29.98 in 10.0 mi NW 11.5 mph 18.4 mph N/A   Clear
6:56 AM 36.7 °F 28.9 °F 30.2 °F 77% 29.99 in 10.0 mi NW 11.5 mph 18.4 mph N/A   Clear
7:16 AM 36.5 °F 28.7 °F 30.0 °F 77% 30.00 in 10.0 mi NW 11.5 mph 21.9 mph N/A   Clear
7:36 AM 36.5 °F 29.2 °F 29.8 °F 77% 30.01 in 10.0 mi NW 10.4 mph 16.1 mph N/A   Clear
7:56 AM 36.5 °F 29.2 °F 29.7 °F 76% 30.02 in 10.0 mi WNW 10.4 mph 17.3 mph N/A   Clear
8:17 AM 36.7 °F 28.9 °F 29.7 °F 76% 30.03 in 10.0 mi NW 11.5 mph 16.1 mph N/A   Clear
8:36 AM 37.4 °F 29.8 °F 30.0 °F 75% 30.03 in 10.0 mi NW 11.5 mph 20.7 mph N/A   Clear
8:56 AM 38.3 °F 30.1 °F 30.2 °F 73% 30.04 in 10.0 mi NW 13.8 mph 24.2 mph N/A   Clear
9:16 AM 38.8 °F 32.1 °F 30.4 °F 72% 30.05 in 10.0 mi WNW 10.4 mph - N/A   Clear
9:36 AM 39.6 °F 32.5 °F 30.2 °F 69% 30.06 in 10.0 mi NW 11.5 mph 19.6 mph N/A   Clear
9:56 AM 40.5 °F 32.8 °F 30.9 °F 69% 30.06 in 10.0 mi NW 13.8 mph 23.0 mph N/A   Clear
10:17 AM 41.0 °F 33.1 °F 30.6 °F 66% 30.07 in 10.0 mi NNW 15.0 mph 24.2 mph N/A   Clear
10:36 AM 41.7 °F 34.1 °F 30.9 °F 66% 30.08 in 10.0 mi NNW 15.0 mph 21.9 mph N/A   Scattered Clouds
10:56 AM 41.9 °F 34.6 °F 30.9 °F 65% 30.09 in 10.0 mi NW 13.8 mph 21.9 mph N/A   Clear
11:17 AM 43.3 °F 37.2 °F 31.8 °F 64% 30.09 in 10.0 mi NW 11.5 mph - N/A   Scattered Clouds
11:36 AM 42.8 °F 35.8 °F 31.1 °F 63% 30.10 in 10.0 mi NW 13.8 mph 19.6 mph N/A   Scattered Clouds
11:56 AM 43.7 °F 38.1 °F 31.8 °F 63% 30.10 in 10.0 mi NW 10.4 mph 18.4 mph N/A   Scattered Clouds
12:17 PM 44.4 °F 38.6 °F 31.5 °F 60% 30.11 in 10.0 mi NNW 11.5 mph - N/A   Scattered Clouds
12:36 PM 43.9 °F 37.5 °F 31.6 °F 62% 30.11 in 10.0 mi NW 12.7 mph 20.7 mph N/A   Mostly Cloudy
12:56 PM 44.8 °F 39.0 °F 32.0 °F 61% 30.10 in 10.0 mi NW 11.5 mph - N/A   Mostly Cloudy
1:16 PM 45.9 °F 40.8 °F 32.2 °F 59% 30.10 in 10.0 mi NW 10.4 mph 17.3 mph N/A   Scattered Clouds
1:36 PM 45.3 °F 40.1 °F 32.2 °F 60% 30.10 in 10.0 mi NW 10.4 mph 17.3 mph N/A   Mostly Cloudy
1:56 PM 45.7 °F 39.8 °F 31.8 °F 58% 30.10 in 10.0 mi NNW 12.7 mph 16.1 mph N/A   Mostly Cloudy
2:16 PM 46.8 °F - 32.2 °F 57% 30.10 in 10.0 mi WNW 10.4 mph 16.1 mph N/A   Mostly Cloudy
2:36 PM 47.1 °F - 32.0 °F 56% 30.10 in 10.0 mi WNW 9.2 mph 17.3 mph N/A   Mostly Cloudy
2:56 PM 45.5 °F 40.3 °F 31.6 °F 58% 30.10 in 10.0 mi NW 10.4 mph - N/A   Scattered Clouds
3:16 PM 47.5 °F - 32.2 °F 55% 30.10 in 10.0 mi NNW 11.5 mph 17.3 mph N/A   Mostly Cloudy
3:36 PM 46.8 °F - 31.5 °F 55% 30.11 in 10.0 mi NW 12.7 mph 18.4 mph N/A   Overcast
3:56 PM 45.5 °F 41.3 °F 31.1 °F 57% 30.10 in 10.0 mi NW 8.1 mph - N/A   Mostly Cloudy
4:16 PM 44.8 °F 39.9 °F 31.5 °F 60% 30.10 in 10.0 mi NW 9.2 mph - N/A   Overcast
4:36 PM 43.9 °F 38.3 °F 31.3 °F 61% 30.10 in 10.0 mi NW 10.4 mph - N/A   Overcast
4:56 PM 43.2 °F 38.4 °F 31.1 °F 62% 30.10 in 10.0 mi NW 8.1 mph 18.4 mph N/A   Overcast
5:17 PM 42.4 °F 36.5 °F 31.5 °F 65% 30.11 in 10.0 mi WNW 10.4 mph 16.1 mph N/A   Overcast
5:36 PM 41.9 °F 36.9 °F 30.6 °F 64% 30.10 in 10.0 mi NW 8.1 mph - N/A   Overcast
5:56 PM 41.7 °F 36.1 °F 30.4 °F 64% 30.10 in 10.0 mi NW 9.2 mph - N/A   Overcast
6:17 PM 41.4 °F 37.6 °F 29.8 °F 64% 30.10 in 10.0 mi NW 5.8 mph - N/A   Overcast
6:36 PM 41.4 °F 38.4 °F 29.3 °F 62% 30.10 in 10.0 mi NW 4.6 mph - N/A   Overcast
6:56 PM 41.0 °F - 29.7 °F 64% 30.09 in 10.0 mi Calm Calm - N/A   Overcast
7:17 PM 40.8 °F 38.8 °F 30.2 °F 66% 30.10 in 10.0 mi NW 3.5 mph - N/A   Overcast
7:36 PM 40.8 °F 36.9 °F 30.4 °F 66% 30.11 in 10.0 mi NNW 5.8 mph - N/A   Overcast
7:56 PM 40.6 °F - 30.6 °F 67% 30.11 in 10.0 mi Calm Calm - N/A   Overcast
8:17 PM 40.3 °F - 31.3 °F 70% 30.10 in 10.0 mi Calm Calm - N/A   Overcast
8:36 PM 40.3 °F 38.2 °F 30.7 °F 69% 30.09 in 10.0 mi West 3.5 mph - N/A   Overcast
8:56 PM 40.8 °F 37.8 °F 30.0 °F 65% 30.08 in 10.0 mi WNW 4.6 mph - N/A   Overcast
9:16 PM 40.5 °F - 30.0 °F 66% 30.08 in 10.0 mi Calm Calm - N/A   Overcast
9:36 PM 39.6 °F - 30.7 °F 71% 30.08 in 10.0 mi Calm Calm - N/A   Overcast
9:57 PM 40.1 °F 38.0 °F 30.6 °F 69% 30.08 in 10.0 mi WSW 3.5 mph - N/A   Overcast
10:16 PM 38.8 °F - 30.2 °F 71% 30.07 in 10.0 mi Calm Calm - N/A   Overcast
10:36 PM 37.2 °F - 30.0 °F 75% 30.05 in 10.0 mi Calm Calm - N/A   Scattered Clouds
10:56 PM 34.2 °F - 30.0 °F 85% 30.06 in 10.0 mi Calm Calm - N/A   Clear
11:16 PM 32.9 °F - 29.7 °F 88% 30.05 in 10.0 mi Calm Calm - N/A   Clear
11:36 PM 32.2 °F - 29.5 °F 90% 30.04 in 10.0 mi Calm Calm - N/A   Clear
11:56 PM 32.4 °F 29.1 °F 29.3 °F 88% 30.03 in 10.0 mi SW 3.5 mph - N/A   Clear